createdAt,value
2023-05-10T00:00:47.394Z,15.73
2023-05-10T00:03:15.452Z,15.78
2023-05-10T00:05:42.736Z,15.79
2023-05-10T00:08:10.017Z,15.82
2023-05-10T00:10:38.567Z,15.78
2023-05-10T00:13:08.619Z,15.75
2023-05-10T00:15:35.955Z,15.65
2023-05-10T00:18:03.319Z,15.76
2023-05-10T00:20:31.093Z,15.85
2023-05-10T00:22:58.663Z,15.93
2023-05-10T00:25:26.527Z,15.97
2023-05-10T00:27:56.167Z,15.88
2023-05-10T00:30:23.755Z,15.94
2023-05-10T00:32:53.738Z,15.96
2023-05-10T00:35:21.031Z,15.96
2023-05-10T00:37:48.947Z,15.60
2023-05-10T00:40:16.373Z,15.72
2023-05-10T00:42:47.765Z,15.67
2023-05-10T00:45:15.044Z,15.65
2023-05-10T00:47:42.906Z,15.57
2023-05-10T00:50:11.152Z,15.63
2023-05-10T00:52:38.366Z,15.65
2023-05-10T00:55:07.748Z,15.64
2023-05-10T00:57:34.987Z,15.59
2023-05-10T01:00:04.464Z,15.63
2023-05-10T01:02:32.791Z,15.54
2023-05-10T01:05:03.066Z,15.42
2023-05-10T01:07:30.842Z,15.24
2023-05-10T01:09:58.643Z,15.37
2023-05-10T01:12:26.727Z,15.39
2023-05-10T01:14:55.219Z,15.40
2023-05-10T01:17:24.029Z,15.44
2023-05-10T01:19:52.371Z,15.52
2023-05-10T01:22:55.612Z,15.42
2023-05-10T01:26:06.677Z,15.30
2023-05-10T01:29:21.982Z,15.30
2023-05-10T01:32:28.621Z,15.32
2023-05-10T01:35:04.922Z,15.29
2023-05-10T01:38:26.191Z,15.28
2023-05-10T01:41:34.485Z,15.17
2023-05-10T01:44:35.892Z,14.90
2023-05-10T01:47:11.221Z,15.09
2023-05-10T01:49:54.674Z,15.12
2023-05-10T01:52:34.959Z,14.99
2023-05-10T01:55:08.856Z,15.22
2023-05-10T01:57:41.256Z,15.25
2023-05-10T02:00:12.077Z,15.30
2023-05-10T02:02:48.854Z,15.21
2023-05-10T02:05:19.972Z,15.16
2023-05-10T02:07:49.909Z,15.02
2023-05-10T02:10:19.412Z,14.80
2023-05-10T02:12:51.757Z,14.98
2023-05-10T02:15:25.763Z,15.05
2023-05-10T02:17:58.361Z,14.97
2023-05-10T02:20:28.257Z,14.99
2023-05-10T02:22:58.688Z,15.13
2023-05-10T02:25:28.543Z,15.13
2023-05-10T02:27:59.113Z,15.14
2023-05-10T02:30:27.302Z,15.14
2023-05-10T02:32:56.565Z,15.08
2023-05-10T02:35:27.312Z,15.05
2023-05-10T02:37:55.839Z,15.06
2023-05-10T02:40:28.761Z,15.07
2023-05-10T02:43:00.269Z,15.02
2023-05-10T02:45:33.645Z,15.07
2023-05-10T02:48:01.514Z,15.13
2023-05-10T02:50:33.805Z,15.15
2023-05-10T02:53:20.387Z,15.07
2023-05-10T02:55:56.156Z,14.98
2023-05-10T02:58:23.325Z,15.06
2023-05-10T03:00:51.494Z,15.06
2023-05-10T03:03:21.021Z,14.96
2023-05-10T03:05:50.698Z,15.00
2023-05-10T03:08:18.214Z,14.91
2023-05-10T03:11:21.895Z,14.96
2023-05-10T03:14:22.540Z,14.88
2023-05-10T03:17:23.975Z,14.84
2023-05-10T03:20:05.692Z,14.88
2023-05-10T03:22:40.856Z,14.90
2023-05-10T03:25:12.619Z,14.86
2023-05-10T03:27:44.974Z,14.93
2023-05-10T03:30:15.075Z,14.82
2023-05-10T03:32:43.046Z,14.89
2023-05-10T03:35:14.035Z,14.92
2023-05-10T03:37:41.448Z,15.07
2023-05-10T03:40:11.062Z,15.15
2023-05-10T03:42:40.834Z,15.10
2023-05-10T03:45:09.755Z,14.63
2023-05-10T03:47:37.124Z,14.92
2023-05-10T03:50:06.056Z,14.95
2023-05-10T03:52:34.085Z,15.08
2023-05-10T03:55:01.278Z,15.08
2023-05-10T03:57:28.861Z,15.14
2023-05-10T03:59:56.439Z,15.23
2023-05-10T04:02:25.036Z,15.25
2023-05-10T04:04:52.598Z,15.22
2023-05-10T04:07:20.402Z,15.18
2023-05-10T04:09:48.532Z,15.22
2023-05-10T04:12:16.159Z,14.97
2023-05-10T04:14:43.704Z,14.94
2023-05-10T04:17:11.732Z,15.02
2023-05-10T04:19:39.276Z,15.15
2023-05-10T04:22:07.408Z,15.00
2023-05-10T04:24:35.898Z,15.15
2023-05-10T04:27:03.408Z,15.20
2023-05-10T04:29:32.193Z,15.15
2023-05-10T04:31:59.684Z,15.32
2023-05-10T04:34:27.183Z,15.29
2023-05-10T04:36:54.431Z,15.08
2023-05-10T04:39:21.663Z,15.11
2023-05-10T04:41:51.207Z,15.16
2023-05-10T04:44:18.331Z,15.13
2023-05-10T04:46:45.516Z,15.12
2023-05-10T04:49:12.767Z,15.07
2023-05-10T04:51:40.637Z,15.24
2023-05-10T04:54:08.034Z,15.28
2023-05-10T04:56:35.176Z,15.39
2023-05-10T04:59:02.539Z,15.34
2023-05-10T05:01:30.303Z,15.39
2023-05-10T05:04:03.923Z,15.39
2023-05-10T05:06:31.186Z,15.48
2023-05-10T05:08:58.349Z,15.61
2023-05-10T05:11:26.930Z,15.61
2023-05-10T05:13:54.534Z,15.72
2023-05-10T05:16:22.466Z,15.76
2023-05-10T05:18:55.352Z,15.85
2023-05-10T05:21:26.268Z,15.89
2023-05-10T05:23:53.454Z,15.87
2023-05-10T05:26:20.624Z,15.89
2023-05-10T05:28:51.726Z,16.06
2023-05-10T05:31:18.903Z,16.00
2023-05-10T05:33:46.576Z,16.02
2023-05-10T05:36:13.756Z,15.96
2023-05-10T05:38:41.175Z,15.94
2023-05-10T05:41:08.377Z,15.73
2023-05-10T05:43:38.040Z,15.87
2023-05-10T05:46:06.127Z,15.85
2023-05-10T05:48:33.343Z,16.08
2023-05-10T05:51:07.438Z,16.01
2023-05-10T05:53:35.038Z,16.17
2023-05-10T05:56:02.917Z,16.41
2023-05-10T05:58:30.242Z,16.27
2023-05-10T06:00:58.290Z,16.26
2023-05-10T06:03:26.605Z,16.40
2023-05-10T06:05:54.045Z,16.25
2023-05-10T06:08:21.730Z,16.13
2023-05-10T06:10:49.076Z,16.29
2023-05-10T06:13:16.688Z,16.23
2023-05-10T06:15:43.944Z,16.49
2023-05-10T06:18:21.076Z,16.52
2023-05-10T06:20:51.141Z,16.82
2023-05-10T06:23:19.340Z,16.31
2023-05-10T06:25:47.088Z,16.33
2023-05-10T06:28:14.420Z,16.35
2023-05-10T06:30:41.974Z,16.68
2023-05-10T06:33:09.917Z,16.62
2023-05-10T06:35:37.803Z,16.42
2023-05-10T06:38:05.016Z,16.47
2023-05-10T06:40:32.306Z,16.69
2023-05-10T06:42:59.987Z,16.58
2023-05-10T06:45:27.500Z,16.41
2023-05-10T06:47:54.723Z,16.36
2023-05-10T06:50:21.976Z,16.06
2023-05-10T06:52:50.210Z,15.87
2023-05-10T06:55:19.343Z,15.95
2023-05-10T06:57:46.695Z,15.50
2023-05-10T07:00:17.164Z,15.70
2023-05-10T07:02:45.702Z,16.00
2023-05-10T07:05:15.227Z,16.27
2023-05-10T07:07:43.780Z,16.42
2023-05-10T07:10:12.975Z,16.15
2023-05-10T07:12:40.726Z,16.35
2023-05-10T07:15:09.704Z,16.37
2023-05-10T07:17:37.045Z,16.59
2023-05-10T07:20:05.153Z,16.75
2023-05-10T07:22:32.914Z,16.57
2023-05-10T07:25:00.899Z,16.34
2023-05-10T07:27:28.781Z,16.11
2023-05-10T07:29:57.605Z,16.73
2023-05-10T07:32:25.007Z,16.77
2023-05-10T07:34:52.750Z,17.04
2023-05-10T07:37:20.158Z,17.24
2023-05-10T07:39:47.346Z,17.49
2023-05-10T07:42:14.998Z,17.89
2023-05-10T07:44:42.820Z,18.19
2023-05-10T07:47:10.105Z,18.58
2023-05-10T07:49:37.240Z,18.16
2023-05-10T07:52:05.284Z,17.86
2023-05-10T07:54:32.863Z,18.00
2023-05-10T07:57:01.566Z,18.24
2023-05-10T07:59:28.853Z,18.32
2023-05-10T08:01:57.167Z,18.48
2023-05-10T08:04:25.146Z,18.33
2023-05-10T08:06:52.864Z,18.33
2023-05-10T08:09:24.676Z,18.35
2023-05-10T08:11:52.606Z,18.36
2023-05-10T08:14:20.683Z,18.55
2023-05-10T08:16:48.496Z,18.68
2023-05-10T08:19:19.811Z,18.42
2023-05-10T08:21:47.523Z,18.39
2023-05-10T08:24:15.494Z,18.26
2023-05-10T08:26:43.279Z,17.65
2023-05-10T08:29:11.149Z,18.15
2023-05-10T08:31:38.840Z,18.05
2023-05-10T08:34:06.007Z,18.02
2023-05-10T08:36:33.351Z,18.17
2023-05-10T08:39:01.369Z,18.23
2023-05-10T08:41:30.961Z,18.22
2023-05-10T08:43:59.260Z,18.01
2023-05-10T08:46:29.534Z,18.39
2023-05-10T08:48:57.834Z,18.41
2023-05-10T08:51:28.112Z,18.34
2023-05-10T08:53:56.392Z,18.42
2023-05-10T08:56:25.121Z,18.56
2023-05-10T08:58:52.686Z,18.56
2023-05-10T09:01:22.580Z,18.83
2023-05-10T09:03:52.141Z,19.21
2023-05-10T09:06:19.762Z,19.15
2023-05-10T09:08:47.313Z,19.12
2023-05-10T09:11:15.345Z,19.32
2023-05-10T09:13:44.538Z,19.15
2023-05-10T09:16:21.148Z,19.21
2023-05-10T09:18:50.705Z,19.03
2023-05-10T09:21:18.184Z,18.66
2023-05-10T09:23:51.013Z,18.74
2023-05-10T09:26:24.628Z,18.81
2023-05-10T09:29:10.034Z,18.95
2023-05-10T09:31:55.593Z,19.01
2023-05-10T09:34:33.374Z,19.01
2023-05-10T09:37:04.342Z,18.92
2023-05-10T09:39:38.251Z,18.97
2023-05-10T09:42:11.666Z,18.33
2023-05-10T09:44:39.330Z,18.54
2023-05-10T09:47:06.941Z,18.64
2023-05-10T09:49:34.381Z,17.92
2023-05-10T09:52:05.604Z,17.55
2023-05-10T09:54:34.915Z,16.68
2023-05-10T09:57:02.494Z,16.72
2023-05-10T09:59:30.655Z,16.68
2023-05-10T10:02:04.041Z,16.85
2023-05-10T10:04:32.590Z,17.05
2023-05-10T10:07:04.946Z,17.56
2023-05-10T10:09:35.060Z,18.01
2023-05-10T10:12:06.050Z,18.18
2023-05-10T10:14:33.665Z,18.32
2023-05-10T10:19:38.677Z,18.09
2023-05-10T10:22:07.002Z,18.52
2023-05-10T10:24:34.825Z,18.61
2023-05-10T10:27:27.981Z,18.72
2023-05-10T10:30:41.554Z,18.73
2023-05-10T10:33:40.909Z,18.81
2023-05-10T10:36:08.791Z,18.58
2023-05-10T10:39:01.939Z,19.05
2023-05-10T10:41:45.515Z,19.73
2023-05-10T10:44:27.832Z,20.12
2023-05-10T10:47:14.213Z,20.70
2023-05-10T10:49:44.088Z,21.09
2023-05-10T10:52:36.349Z,21.32
2023-05-10T10:55:19.371Z,21.65
2023-05-10T10:57:56.364Z,21.85
2023-05-10T11:00:29.375Z,21.69
2023-05-10T11:03:19.894Z,21.99
2023-05-10T11:05:56.572Z,22.26
2023-05-10T11:08:38.228Z,22.25
2023-05-10T11:11:08.351Z,22.38
2023-05-10T11:13:47.705Z,22.10
2023-05-10T11:16:24.863Z,21.55
2023-05-10T11:19:06.042Z,20.94
2023-05-10T11:21:46.708Z,20.48
2023-05-10T11:24:19.103Z,19.81
2023-05-10T11:26:47.665Z,19.63
2023-05-10T11:29:15.494Z,19.59
2023-05-10T11:31:47.942Z,19.56
2023-05-10T11:34:31.349Z,19.32
2023-05-10T11:36:59.222Z,19.15
2023-05-10T11:39:32.556Z,19.16
2023-05-10T11:42:01.310Z,19.24
2023-05-10T11:44:33.699Z,19.21
2023-05-10T11:47:02.598Z,19.40
2023-05-10T11:49:30.756Z,19.75
2023-05-10T11:52:09.271Z,19.94
2023-05-10T11:54:36.759Z,20.13
2023-05-10T11:57:04.870Z,19.37
2023-05-10T11:59:32.092Z,19.40
2023-05-10T12:01:59.912Z,18.82
2023-05-10T12:04:31.611Z,17.53
2023-05-10T12:06:59.079Z,16.05
2023-05-10T12:09:39.390Z,15.35
2023-05-10T12:12:10.749Z,14.55
2023-05-10T12:14:41.157Z,14.31
2023-05-10T12:17:14.368Z,14.08
2023-05-10T12:19:42.874Z,14.18
2023-05-10T12:22:11.421Z,14.64
2023-05-10T12:24:41.883Z,14.56
2023-05-10T12:27:10.393Z,14.45
2023-05-10T12:29:45.641Z,14.67
2023-05-10T12:32:13.520Z,15.20
2023-05-10T12:34:41.407Z,15.37
2023-05-10T12:37:09.100Z,15.64
2023-05-10T12:39:47.209Z,16.19
2023-05-10T12:42:14.415Z,16.78
2023-05-10T12:44:41.715Z,17.20
2023-05-10T12:47:08.934Z,17.33
2023-05-10T12:49:36.433Z,16.99
2023-05-10T12:52:06.038Z,16.55
2023-05-10T12:54:33.596Z,16.19
2023-05-10T12:57:00.989Z,16.48
2023-05-10T12:59:28.184Z,15.92
2023-05-10T13:01:58.952Z,16.19
2023-05-10T13:04:26.171Z,14.77
2023-05-10T13:06:53.410Z,15.42
2023-05-10T13:09:21.459Z,15.26
2023-05-10T13:11:50.238Z,15.53
2023-05-10T13:14:18.130Z,15.30
2023-05-10T13:16:45.637Z,15.78
2023-05-10T13:19:14.519Z,15.81
2023-05-10T13:21:42.272Z,15.80
2023-05-10T13:24:13.079Z,15.88
2023-05-10T13:26:41.707Z,15.43
2023-05-10T13:29:09.368Z,15.15
2023-05-10T13:31:36.903Z,15.42
2023-05-10T13:34:06.478Z,15.72
2023-05-10T13:36:33.927Z,16.11
2023-05-10T13:39:03.626Z,16.40
2023-05-10T13:41:30.761Z,16.46
2023-05-10T13:43:58.331Z,17.05
2023-05-10T13:46:25.526Z,17.21
2023-05-10T13:48:52.649Z,16.82
2023-05-10T13:51:20.115Z,17.18
2023-05-10T13:53:48.070Z,17.00
2023-05-10T13:56:18.618Z,17.14
2023-05-10T13:58:47.352Z,17.82
2023-05-10T14:01:14.736Z,18.14
2023-05-10T14:03:42.033Z,18.50
2023-05-10T14:06:09.389Z,18.80
2023-05-10T14:08:37.605Z,18.89
2023-05-10T14:11:04.947Z,19.42
2023-05-10T14:13:32.558Z,19.26
2023-05-10T14:16:01.662Z,19.92
2023-05-10T14:18:30.158Z,20.21
2023-05-10T14:20:57.693Z,20.36
2023-05-10T14:23:25.285Z,20.69
2023-05-10T14:25:53.448Z,20.64
2023-05-10T14:28:21.271Z,21.11
2023-05-10T14:30:48.748Z,21.37
2023-05-10T14:33:15.916Z,21.65
2023-05-10T14:35:43.362Z,21.71
2023-05-10T14:38:11.732Z,22.13
2023-05-10T14:40:38.948Z,21.40
2023-05-10T14:43:06.441Z,21.61
2023-05-10T14:45:33.744Z,21.78
2023-05-10T14:48:05.472Z,22.08
2023-05-10T14:50:36.851Z,21.77
2023-05-10T14:53:04.910Z,20.99
2023-05-10T14:55:33.794Z,20.84
2023-05-10T14:58:01.218Z,20.61
2023-05-10T15:00:30.920Z,20.83
2023-05-10T15:02:59.507Z,21.19
2023-05-10T15:05:27.252Z,19.94
2023-05-10T15:07:55.086Z,20.41
2023-05-10T15:10:22.871Z,20.33
2023-05-10T15:12:51.359Z,20.62
2023-05-10T15:15:18.783Z,20.28
2023-05-10T15:17:47.055Z,19.90
2023-05-10T15:20:14.233Z,20.09
2023-05-10T15:22:42.218Z,20.29
2023-05-10T15:25:10.871Z,20.41
2023-05-10T15:27:38.493Z,20.55
2023-05-10T15:30:07.778Z,20.82
2023-05-10T15:32:35.173Z,20.74
2023-05-10T15:35:03.353Z,21.09
2023-05-10T15:37:30.865Z,20.90
2023-05-10T15:40:04.307Z,21.17
2023-05-10T15:42:33.987Z,21.32
2023-05-10T15:45:01.623Z,21.18
2023-05-10T15:47:31.669Z,21.44
2023-05-10T15:49:59.767Z,21.16
2023-05-10T15:52:27.381Z,20.67
2023-05-10T15:54:54.775Z,20.56
2023-05-10T15:57:22.040Z,20.66
2023-05-10T15:59:50.769Z,20.29
2023-05-10T16:02:19.332Z,20.50
2023-05-10T16:04:46.977Z,20.49
2023-05-10T16:07:14.452Z,20.47
2023-05-10T16:09:41.973Z,20.47
2023-05-10T16:12:10.302Z,20.27
2023-05-10T16:14:37.940Z,20.52
2023-05-10T16:17:05.409Z,20.71
2023-05-10T16:19:32.897Z,20.96
2023-05-10T16:22:00.872Z,20.52
2023-05-10T16:24:29.006Z,20.65
2023-05-10T16:26:57.608Z,20.58
2023-05-10T16:29:26.273Z,20.68
2023-05-10T16:31:54.116Z,20.52
2023-05-10T16:34:24.552Z,20.25
2023-05-10T16:36:52.217Z,19.97
2023-05-10T16:39:19.520Z,19.74
2023-05-10T16:41:46.806Z,20.02
2023-05-10T16:44:14.174Z,19.72
2023-05-10T16:46:41.455Z,19.71
2023-05-10T16:49:08.903Z,19.19
2023-05-10T16:51:36.154Z,19.75
2023-05-10T16:54:03.415Z,19.57
2023-05-10T16:56:30.607Z,19.76
2023-05-10T16:58:58.007Z,19.79
2023-05-10T17:01:27.058Z,19.98
2023-05-10T17:03:55.137Z,19.98
2023-05-10T17:06:22.624Z,20.04
2023-05-10T17:08:49.947Z,20.05
2023-05-10T17:11:19.794Z,20.00
2023-05-10T17:13:48.104Z,20.01
2023-05-10T17:16:15.634Z,19.73
2023-05-10T17:18:43.395Z,19.55
2023-05-10T17:21:10.747Z,19.50
2023-05-10T17:23:37.946Z,19.31
2023-05-10T17:26:07.356Z,19.11
2023-05-10T17:28:34.849Z,19.22
2023-05-10T17:31:02.841Z,19.04
2023-05-10T17:33:30.346Z,18.15
2023-05-10T17:35:58.250Z,18.37
2023-05-10T17:38:26.229Z,17.47
2023-05-10T17:40:53.416Z,18.07
2023-05-10T17:43:21.425Z,18.33
2023-05-10T17:45:50.323Z,18.37
2023-05-10T17:48:17.775Z,18.24
2023-05-10T17:50:45.371Z,18.41
2023-05-10T17:53:12.607Z,18.46
2023-05-10T17:55:41.964Z,18.39
2023-05-10T17:58:12.047Z,18.00
2023-05-10T18:00:39.909Z,17.66
2023-05-10T18:03:13.446Z,17.00
2023-05-10T18:05:40.920Z,16.76
2023-05-10T18:08:08.580Z,16.56
2023-05-10T18:10:42.109Z,16.29
2023-05-10T18:13:09.440Z,16.22
2023-05-10T18:15:37.140Z,16.13
2023-05-10T18:18:07.850Z,16.13
2023-05-10T18:20:35.326Z,16.15
2023-05-10T18:23:03.176Z,16.26
2023-05-10T18:25:31.594Z,16.42
2023-05-10T18:27:59.457Z,16.39
2023-05-10T18:30:27.478Z,16.17
2023-05-10T18:32:55.728Z,16.22
2023-05-10T18:35:23.124Z,15.83
2023-05-10T18:37:51.873Z,15.68
2023-05-10T18:40:19.636Z,15.94
2023-05-10T18:42:46.877Z,16.07
2023-05-10T18:45:14.812Z,16.19
2023-05-10T18:47:42.807Z,16.31
2023-05-10T18:50:11.050Z,16.20
2023-05-10T18:52:43.909Z,16.00
2023-05-10T18:55:11.331Z,16.08
2023-05-10T18:57:41.960Z,16.07
2023-05-10T19:00:13.148Z,16.01
2023-05-10T19:03:06.255Z,16.04
2023-05-10T19:05:33.474Z,16.03
2023-05-10T19:08:00.736Z,16.03
2023-05-10T19:10:27.911Z,15.90
2023-05-10T19:12:55.108Z,15.90
2023-05-10T19:15:22.559Z,15.97
2023-05-10T19:17:52.280Z,15.85
2023-05-10T19:20:19.873Z,15.99
2023-05-10T19:23:01.922Z,15.85
2023-05-10T19:25:35.428Z,15.85
2023-05-10T19:28:06.662Z,15.90
2023-05-10T19:30:34.491Z,15.78
2023-05-10T19:33:04.632Z,15.82
2023-05-10T19:35:32.399Z,15.93
2023-05-10T19:37:59.894Z,15.91
2023-05-10T19:40:27.482Z,15.86
2023-05-10T19:42:57.155Z,15.94
2023-05-10T19:45:24.277Z,15.87
2023-05-10T19:47:51.835Z,15.86
2023-05-10T19:50:19.334Z,15.93
2023-05-10T19:52:46.746Z,15.91
2023-05-10T19:55:30.495Z,15.84
2023-05-10T19:58:02.419Z,15.79
2023-05-10T20:00:30.193Z,15.16
2023-05-10T20:02:58.628Z,15.21
2023-05-10T20:05:26.332Z,15.38
2023-05-10T20:07:53.829Z,15.58
2023-05-10T20:10:23.484Z,15.66
2023-05-10T20:12:53.906Z,15.54
2023-05-10T20:15:23.476Z,15.64
2023-05-10T20:17:53.268Z,15.52
2023-05-10T20:20:27.795Z,15.61
2023-05-10T20:27:46.087Z,15.78
2023-05-10T20:30:18.078Z,15.77
2023-05-10T20:32:50.103Z,15.75
2023-05-10T20:35:17.373Z,15.85
2023-05-10T20:37:48.782Z,15.93
2023-05-10T20:40:16.340Z,15.55
2023-05-10T20:42:43.815Z,15.47
2023-05-10T20:45:12.827Z,15.15
2023-05-10T20:47:43.036Z,15.36
2023-05-10T20:50:11.616Z,15.43
2023-05-10T20:52:38.896Z,15.61
2023-05-10T20:55:07.300Z,15.29
2023-05-10T20:57:34.509Z,15.39
2023-05-10T21:00:01.745Z,15.29
2023-05-10T21:02:29.464Z,15.01
2023-05-10T21:04:57.879Z,15.05
2023-05-10T21:07:25.490Z,15.31
2023-05-10T21:09:52.809Z,15.34
2023-05-10T21:12:20.048Z,15.47
2023-05-10T21:14:47.777Z,15.38
2023-05-10T21:17:15.072Z,15.47
2023-05-10T21:19:42.358Z,15.54
2023-05-10T21:22:09.760Z,15.31
2023-05-10T21:24:39.913Z,15.47
2023-05-10T21:27:08.936Z,15.54
2023-05-10T21:29:36.295Z,15.56
2023-05-10T21:32:04.966Z,15.59
2023-05-10T21:34:32.273Z,15.55
2023-05-10T21:36:59.507Z,15.56
2023-05-10T21:39:26.712Z,15.60
2023-05-10T21:41:53.876Z,15.46
2023-05-10T21:44:21.192Z,15.46
2023-05-10T21:46:48.564Z,15.49
2023-05-10T21:49:15.762Z,15.45
2023-05-10T21:51:42.935Z,15.33
2023-05-10T21:54:10.212Z,15.35
2023-05-10T21:56:37.610Z,15.36
2023-05-10T21:59:05.402Z,15.44
2023-05-10T22:01:33.662Z,15.40
2023-05-10T22:04:03.863Z,15.34
2023-05-10T22:06:31.892Z,15.37
2023-05-10T22:08:59.090Z,15.31
2023-05-10T22:11:26.776Z,15.20
2023-05-10T22:13:53.929Z,15.29
2023-05-10T22:16:21.180Z,15.37
2023-05-10T22:18:48.380Z,15.36
2023-05-10T22:21:15.564Z,15.24
2023-05-10T22:23:43.052Z,15.24
2023-05-10T22:26:11.193Z,15.24
2023-05-10T22:28:38.508Z,14.95
2023-05-10T22:31:13.788Z,15.02
2023-05-10T22:33:41.173Z,14.80
2023-05-10T22:36:08.936Z,14.89
2023-05-10T22:38:36.284Z,14.99
2023-05-10T22:41:03.585Z,14.97
2023-05-10T22:43:30.824Z,15.01
2023-05-10T22:45:58.716Z,14.97
2023-05-10T22:48:26.461Z,14.33
2023-05-10T22:50:53.870Z,14.39
2023-05-10T22:53:20.955Z,14.59
2023-05-10T22:55:48.539Z,14.31
2023-05-10T22:58:16.028Z,14.60
2023-05-10T23:00:43.171Z,14.49
2023-05-10T23:03:10.661Z,14.64
2023-05-10T23:05:38.075Z,14.62
2023-05-10T23:08:05.751Z,14.39
2023-05-10T23:10:33.459Z,14.09
2023-05-10T23:13:01.177Z,14.36
2023-05-10T23:15:28.566Z,14.45
2023-05-10T23:17:55.965Z,14.55
2023-05-10T23:20:23.382Z,14.65
2023-05-10T23:22:51.159Z,14.67
2023-05-10T23:25:18.943Z,14.68
2023-05-10T23:27:52.345Z,14.70
2023-05-10T23:30:19.953Z,14.64
2023-05-10T23:32:48.375Z,14.41
2023-05-10T23:35:16.302Z,14.39
2023-05-10T23:37:43.477Z,14.54
2023-05-10T23:40:11.266Z,14.52
2023-05-10T23:42:38.446Z,14.29
2023-05-10T23:45:06.483Z,14.45
2023-05-10T23:47:33.811Z,14.29
2023-05-10T23:50:01.404Z,13.75
2023-05-10T23:52:28.891Z,13.37
2023-05-10T23:54:56.133Z,13.02
2023-05-10T23:57:23.521Z,13.33
2023-05-10T23:59:50.615Z,13.75
